Buffalo, WY

10:14 AM MDT on July 26, 2014 (GMT -0600)
Esponda Ranch (KWYBUFFA8) Elev 4665 ft | 44.32 °N, 106.67 °W | Change Station

Current weather conditions updated 4 minutes ago

Clear
Clear
71.5 °F
Feels Like 76 °F
N
1.0
Wind Variable Wind from NNE
Gusts 6.0 mph

Today is forecast to be Much Cooler than yesterday.

Today
High -- | Low -- °F
--% Chance of Precip.
Yesterday
High -- | Low -- °F
Precip. -- in
5:47 AM 8:38 PM
Waning Crescent, 0% visible
Pressure 30.06 in
Visibility 10.0 miles
Clouds Clear
Heat Index 76 °F
Dew Point 39 °F
Humidity 31%
Rainfall 0.00 in
Snow Depth Not available.
UV 6 out of 12
Pollen 6.50 out of 12
Air Quality Not available.
Flu Activity Not available.
METAR KBYG 261553Z AUTO 34007KT 10SM CLR 21/01 A3022 RMK AO2 SLP177 T02060006

More Conditions Fewer Conditions

Pressure 30.06 in
Visibility 10.0 miles
Clouds Clear
Heat Index 76 °F
Dew Point 39 °F
Humidity 31%
Rainfall 0.00 in
Snow Depth Not available.
UV 6 out of 12
Pollen 6.50 out of 12
Air Quality Not available.
Flu Activity Not available.
METAR KBYG 261553Z AUTO 34007KT 10SM CLR 21/01 A3022 RMK AO2 SLP177 T02060006

More Conditions Fewer Conditions

10-Day Weather Forecast

Almanac

Astronomy

Jul. 26, 2014 Rise Set
Actual Time 5:47 AM MDT 8:38 PM MDT
Civil Twilight 5:13 AM MDT 9:12 PM MDT
Nautical Twilight 4:30 AM MDT 9:55 PM MDT
Astronomical Twilight 3:39 AM MDT 10:45 PM MDT
Moon 5:45 AM MDT 8:11 PM MDT
Length of Visible Light 15h 58m
Length of Day
14h 50m
Tomorrow will be 2m 10s shorter.
Waning Crescent, 0% of the Moon is Illuminated
Today
Waning Crescent
Jul 26
New
Aug 3
First Quarter
Aug 10
Full
Aug 17
Last Quarter

Today's Extremes

State Highs State Lows

Community

WunderPhotos

Upload Photos

1,737,625 photos uploaded!

Nearby

Snow Depth

Station Depth Elevation
Big Goose 0 in 7990 ft
Bear Trap Meadow 0 in 8200 ft
Bald Mountain 0 in 9380 ft
Casper Mountain 0 in 7850 ft
Reno Hill 0 in 8500 ft

Earthquake Activity

City Distance Mag. Time & Date
No recent earthquake activity has been reported nearby.
Minimum magnitude displayed is 2.5.

Coastal Water Temperatures

Place Temperature
No Stations Reporting

Nearby Weather Stations

Station Location Temp. Heat Index Dew Point Humidity Wind Precip. Elev Updated Type
Esponda Ranch, Buffalo, WY 71.5 °F 76 °F 39 °F 31% NNE  at  1.0 mph 0.00 in / hr 4665 ft 10:10 AM MDT Normal
Merlin Ranch, Buffalo, WY 72.1 °F 76 °F 41 °F 32% ENE  at  3.0 mph 0.00 in / hr 4364 ft 10:06 AM MDT Normal
HADS CLEAR CREEK AT MOSIER GULCH NEAR WY, Buffalo, WY 63 °F - - - North  at  - 0.00 in / hr 5745 ft 9:00 AM MDT MADIS
Pope Meadow, North Piney, Story WY, Story, WY 66.8 °F - 39 °F 36% West  at  2.0 mph 0.00 in / hr 5285 ft 10:13 AM MDT Rapid Fire
RAWS SCHOOL HOUSE WY, Buffalo, WY 58 °F - 34 °F 40% North  at  4 mph 0.00 in / hr 8604 ft 9:47 AM MDT MADIS
HADS SOUTH PINEY CREEK BELOW WILLOW P WY, Story, WY 57 °F - - - North  at  - 0.00 in / hr 8580 ft 8:45 AM MDT MADIS

Show More Stations Show Fewer Stations